sensor_id;sensor_type;location;lat;lon;timestamp;pressure;altitude;pressure_sealevel;temperature;humidity
33286;BME280;19656;50.096;20.014;2023-05-22T00:04:53;99243.45;;;15.84;52.35
33286;BME280;19656;50.096;20.014;2023-05-22T00:09:56;99239.16;;;15.80;52.71
33286;BME280;19656;50.096;20.014;2023-05-22T00:15:00;99231.41;;;15.72;53.05
33286;BME280;19656;50.096;20.014;2023-05-22T00:20:04;99226.91;;;15.65;52.81
33286;BME280;19656;50.096;20.014;2023-05-22T00:25:14;99230.73;;;15.59;53.05
33286;BME280;19656;50.096;20.014;2023-05-22T00:30:19;99233.89;;;15.54;53.01
33286;BME280;19656;50.096;20.014;2023-05-22T00:35:22;99234.98;;;15.49;53.00
33286;BME280;19656;50.096;20.014;2023-05-22T00:40:26;99227.75;;;15.44;53.30
33286;BME280;19656;50.096;20.014;2023-05-22T00:45:29;99228.39;;;15.37;53.37
33286;BME280;19656;50.096;20.014;2023-05-22T00:50:32;99232.41;;;15.34;53.41
33286;BME280;19656;50.096;20.014;2023-05-22T00:55:39;99226.90;;;15.29;53.43
33286;BME280;19656;50.096;20.014;2023-05-22T01:00:57;99228.14;;;15.25;53.42
33286;BME280;19656;50.096;20.014;2023-05-22T01:06:02;99226.02;;;15.20;53.83
33286;BME280;19656;50.096;20.014;2023-05-22T01:16:39;99214.65;;;15.10;54.06
33286;BME280;19656;50.096;20.014;2023-05-22T01:27:52;99212.16;;;14.94;54.45
33286;BME280;19656;50.096;20.014;2023-05-22T01:32:58;99217.31;;;14.82;54.75
33286;BME280;19656;50.096;20.014;2023-05-22T01:38:02;99214.43;;;14.71;55.07
33286;BME280;19656;50.096;20.014;2023-05-22T01:43:07;99217.49;;;14.61;55.51
33286;BME280;19656;50.096;20.014;2023-05-22T01:48:10;99217.02;;;14.51;55.64
33286;BME280;19656;50.096;20.014;2023-05-22T01:53:23;99213.27;;;14.41;56.09
33286;BME280;19656;50.096;20.014;2023-05-22T01:58:38;99208.70;;;14.31;56.65
33286;BME280;19656;50.096;20.014;2023-05-22T02:03:46;99207.50;;;14.18;56.93
33286;BME280;19656;50.096;20.014;2023-05-22T02:08:53;99215.56;;;14.10;57.35
33286;BME280;19656;50.096;20.014;2023-05-22T02:13:59;99218.79;;;14.03;57.50
33286;BME280;19656;50.096;20.014;2023-05-22T02:19:03;99220.16;;;13.96;57.67
33286;BME280;19656;50.096;20.014;2023-05-22T02:24:10;99223.54;;;13.89;58.03
33286;BME280;19656;50.096;20.014;2023-05-22T02:29:14;99225.70;;;13.89;57.84
33286;BME280;19656;50.096;20.014;2023-05-22T02:34:18;99222.72;;;13.86;58.10
33286;BME280;19656;50.096;20.014;2023-05-22T02:39:21;99220.56;;;13.81;57.94
33286;BME280;19656;50.096;20.014;2023-05-22T02:44:25;99218.59;;;13.79;58.15
33286;BME280;19656;50.096;20.014;2023-05-22T02:49:28;99219.70;;;13.78;58.22
33286;BME280;19656;50.096;20.014;2023-05-22T02:54:32;99214.56;;;13.82;57.98
33286;BME280;19656;50.096;20.014;2023-05-22T02:59:35;99207.06;;;13.90;58.04
33286;BME280;19656;50.096;20.014;2023-05-22T03:04:38;99205.63;;;14.09;58.54
33286;BME280;19656;50.096;20.014;2023-05-22T03:09:43;99209.53;;;14.44;57.92
33286;BME280;19656;50.096;20.014;2023-05-22T03:14:46;99206.31;;;14.53;57.28
33286;BME280;19656;50.096;20.014;2023-05-22T03:19:50;99205.90;;;14.59;57.04
33286;BME280;19656;50.096;20.014;2023-05-22T03:24:53;99205.33;;;14.64;56.79
33286;BME280;19656;50.096;20.014;2023-05-22T03:29:56;99207.46;;;14.71;56.58
33286;BME280;19656;50.096;20.014;2023-05-22T03:35:00;99207.28;;;14.73;56.01
33286;BME280;19656;50.096;20.014;2023-05-22T03:40:03;99211.41;;;14.61;55.64
33286;BME280;19656;50.096;20.014;2023-05-22T03:45:08;99210.95;;;14.44;55.88
33286;BME280;19656;50.096;20.014;2023-05-22T03:50:12;99203.95;;;14.30;56.37
33286;BME280;19656;50.096;20.014;2023-05-22T03:55:15;99200.04;;;14.22;56.30
33286;BME280;19656;50.096;20.014;2023-05-22T04:00:19;99202.27;;;14.21;56.35
33286;BME280;19656;50.096;20.014;2023-05-22T04:05:22;99201.52;;;14.24;56.39
33286;BME280;19656;50.096;20.014;2023-05-22T04:10:26;99205.48;;;14.26;56.50
33286;BME280;19656;50.096;20.014;2023-05-22T04:15:29;99207.02;;;14.29;56.81
33286;BME280;19656;50.096;20.014;2023-05-22T04:20:35;99204.79;;;14.33;56.86
33286;BME280;19656;50.096;20.014;2023-05-22T04:25:39;99210.69;;;14.37;57.00
33286;BME280;19656;50.096;20.014;2023-05-22T04:30:42;99208.73;;;14.42;57.10
33286;BME280;19656;50.096;20.014;2023-05-22T04:35:46;99207.23;;;14.51;56.90
33286;BME280;19656;50.096;20.014;2023-05-22T04:40:50;99204.38;;;14.60;56.93
33286;BME280;19656;50.096;20.014;2023-05-22T04:45:55;99198.37;;;14.69;56.91
33286;BME280;19656;50.096;20.014;2023-05-22T04:50:59;99191.54;;;14.74;57.02
33286;BME280;19656;50.096;20.014;2023-05-22T04:56:05;99190.06;;;14.81;57.22
33286;BME280;19656;50.096;20.014;2023-05-22T05:01:09;99191.48;;;14.88;57.34
33286;BME280;19656;50.096;20.014;2023-05-22T05:06:12;99191.56;;;14.95;57.29
33286;BME280;19656;50.096;20.014;2023-05-22T05:11:16;99193.11;;;15.00;57.16
33286;BME280;19656;50.096;20.014;2023-05-22T05:16:21;99192.86;;;15.05;57.18
33286;BME280;19656;50.096;20.014;2023-05-22T05:21:37;99191.25;;;15.14;57.33
33286;BME280;19656;50.096;20.014;2023-05-22T05:26:41;99192.75;;;15.27;57.44
33286;BME280;19656;50.096;20.014;2023-05-22T05:31:44;99192.39;;;15.41;57.12
33286;BME280;19656;50.096;20.014;2023-05-22T05:37:13;99190.98;;;15.54;56.16
33286;BME280;19656;50.096;20.014;2023-05-22T05:42:16;99192.74;;;15.60;55.52
33286;BME280;19656;50.096;20.014;2023-05-22T05:47:21;99190.84;;;15.71;55.36
33286;BME280;19656;50.096;20.014;2023-05-22T05:52:28;99187.34;;;15.77;55.17
33286;BME280;19656;50.096;20.014;2023-05-22T05:57:37;99183.05;;;15.88;55.31
33286;BME280;19656;50.096;20.014;2023-05-22T06:02:43;99180.00;;;16.01;55.45
33286;BME280;19656;50.096;20.014;2023-05-22T06:07:59;99173.73;;;16.16;55.20
33286;BME280;19656;50.096;20.014;2023-05-22T06:13:02;99176.33;;;16.33;55.01
33286;BME280;19656;50.096;20.014;2023-05-22T06:18:05;99172.09;;;16.72;57.68
33286;BME280;19656;50.096;20.014;2023-05-22T06:23:09;99169.66;;;17.42;57.07
33286;BME280;19656;50.096;20.014;2023-05-22T06:28:13;99170.09;;;17.73;54.71
33286;BME280;19656;50.096;20.014;2023-05-22T06:33:16;99166.14;;;17.90;53.87
33286;BME280;19656;50.096;20.014;2023-05-22T06:38:20;99166.16;;;18.07;53.07
33286;BME280;19656;50.096;20.014;2023-05-22T06:43:24;99170.74;;;18.18;52.04
33286;BME280;19656;50.096;20.014;2023-05-22T06:48:39;99166.70;;;18.34;51.89
33286;BME280;19656;50.096;20.014;2023-05-22T06:53:50;99166.90;;;18.50;51.39
33286;BME280;19656;50.096;20.014;2023-05-22T06:58:58;99165.45;;;18.65;51.05
33286;BME280;19656;50.096;20.014;2023-05-22T07:04:19;99164.56;;;18.77;50.61
33286;BME280;19656;50.096;20.014;2023-05-22T07:09:35;99165.09;;;18.85;50.45
33286;BME280;19656;50.096;20.014;2023-05-22T07:14:38;99164.60;;;19.02;51.19
33286;BME280;19656;50.096;20.014;2023-05-22T07:19:43;99164.08;;;19.20;51.01
33286;BME280;19656;50.096;20.014;2023-05-22T07:24:49;99154.85;;;19.38;49.71
33286;BME280;19656;50.096;20.014;2023-05-22T07:29:54;99155.90;;;19.45;49.37
33286;BME280;19656;50.096;20.014;2023-05-22T07:34:59;99153.41;;;19.60;48.74
33286;BME280;19656;50.096;20.014;2023-05-22T07:40:03;99152.61;;;19.66;48.61
33286;BME280;19656;50.096;20.014;2023-05-22T07:45:09;99149.36;;;19.74;48.25
33286;BME280;19656;50.096;20.014;2023-05-22T07:50:14;99153.75;;;19.77;47.94
33286;BME280;19656;50.096;20.014;2023-05-22T07:55:20;99155.46;;;19.76;47.70
33286;BME280;19656;50.096;20.014;2023-05-22T08:00:25;99157.44;;;19.72;47.94
33286;BME280;19656;50.096;20.014;2023-05-22T08:05:32;99156.61;;;19.79;48.33
33286;BME280;19656;50.096;20.014;2023-05-22T08:10:37;99156.07;;;19.84;48.22
33286;BME280;19656;50.096;20.014;2023-05-22T08:16:01;99156.11;;;19.88;47.43
33286;BME280;19656;50.096;20.014;2023-05-22T08:21:04;99152.36;;;19.95;47.95
33286;BME280;19656;50.096;20.014;2023-05-22T08:26:09;99152.95;;;20.09;47.78
33286;BME280;19656;50.096;20.014;2023-05-22T08:31:13;99154.46;;;20.11;47.24
33286;BME280;19656;50.096;20.014;2023-05-22T08:36:16;99154.59;;;20.10;47.53
33286;BME280;19656;50.096;20.014;2023-05-22T08:41:19;99158.02;;;20.12;47.19
33286;BME280;19656;50.096;20.014;2023-05-22T08:46:23;99162.11;;;20.16;47.62
33286;BME280;19656;50.096;20.014;2023-05-22T08:51:32;99159.08;;;20.23;47.20
33286;BME280;19656;50.096;20.014;2023-05-22T08:56:36;99154.58;;;20.28;47.06
33286;BME280;19656;50.096;20.014;2023-05-22T09:01:55;99152.05;;;20.36;47.19
33286;BME280;19656;50.096;20.014;2023-05-22T09:07:13;99151.41;;;20.45;46.99
33286;BME280;19656;50.096;20.014;2023-05-22T09:12:16;99142.77;;;20.54;46.54
33286;BME280;19656;50.096;20.014;2023-05-22T09:17:20;99141.20;;;20.65;45.48
33286;BME280;19656;50.096;20.014;2023-05-22T09:22:34;99139.90;;;20.67;43.76
33286;BME280;19656;50.096;20.014;2023-05-22T09:27:37;99134.66;;;20.77;44.93
33286;BME280;19656;50.096;20.014;2023-05-22T09:32:40;99129.13;;;20.87;44.82
33286;BME280;19656;50.096;20.014;2023-05-22T09:37:43;99123.71;;;20.92;44.13
33286;BME280;19656;50.096;20.014;2023-05-22T09:42:46;99121.93;;;20.97;43.70
33286;BME280;19656;50.096;20.014;2023-05-22T09:47:49;99124.46;;;21.04;43.40
33286;BME280;19656;50.096;20.014;2023-05-22T09:52:53;99116.13;;;21.18;43.28
33286;BME280;19656;50.096;20.014;2023-05-22T09:57:57;99111.10;;;21.28;43.00
33286;BME280;19656;50.096;20.014;2023-05-22T10:03:01;99109.35;;;21.41;42.68
33286;BME280;19656;50.096;20.014;2023-05-22T10:08:12;99105.23;;;21.52;42.49
33286;BME280;19656;50.096;20.014;2023-05-22T10:13:19;99106.14;;;21.67;42.39
33286;BME280;19656;50.096;20.014;2023-05-22T10:18:25;99097.23;;;21.66;42.15
33286;BME280;19656;50.096;20.014;2023-05-22T10:23:29;99095.09;;;21.62;43.61
33286;BME280;19656;50.096;20.014;2023-05-22T10:28:41;99085.59;;;21.80;43.49
33286;BME280;19656;50.096;20.014;2023-05-22T10:34:10;99086.07;;;21.99;42.87
33286;BME280;19656;50.096;20.014;2023-05-22T10:44:48;99082.30;;;22.25;42.45
33286;BME280;19656;50.096;20.014;2023-05-22T10:50:09;99087.73;;;22.45;41.20
33286;BME280;19656;50.096;20.014;2023-05-22T10:55:13;99080.65;;;22.68;40.26
33286;BME280;19656;50.096;20.014;2023-05-22T11:00:19;99070.00;;;22.88;40.40
33286;BME280;19656;50.096;20.014;2023-05-22T11:33:52;99030.31;;;23.77;36.59
33286;BME280;19656;50.096;20.014;2023-05-22T11:39:03;99027.36;;;23.98;35.68
33286;BME280;19656;50.096;20.014;2023-05-22T11:44:07;99032.34;;;24.12;34.15
33286;BME280;19656;50.096;20.014;2023-05-22T11:49:10;99029.90;;;24.28;33.68
33286;BME280;19656;50.096;20.014;2023-05-22T11:54:17;99036.40;;;24.39;32.99
33286;BME280;19656;50.096;20.014;2023-05-22T11:59:20;99028.52;;;24.49;31.98
33286;BME280;19656;50.096;20.014;2023-05-22T12:04:24;99027.44;;;24.47;31.47
33286;BME280;19656;50.096;20.014;2023-05-22T12:09:27;99028.36;;;24.58;31.41
33286;BME280;19656;50.096;20.014;2023-05-22T12:14:30;99029.77;;;24.81;31.51
33286;BME280;19656;50.096;20.014;2023-05-22T12:19:34;99027.68;;;24.99;30.57
33286;BME280;19656;50.096;20.014;2023-05-22T12:24:41;99026.86;;;25.06;30.43
33286;BME280;19656;50.096;20.014;2023-05-22T12:29:44;99026.59;;;25.22;30.61
33286;BME280;19656;50.096;20.014;2023-05-22T12:34:48;99016.84;;;25.36;30.72
33286;BME280;19656;50.096;20.014;2023-05-22T12:39:58;99007.02;;;25.30;30.35
33286;BME280;19656;50.096;20.014;2023-05-22T12:45:02;98999.60;;;25.24;30.22
33286;BME280;19656;50.096;20.014;2023-05-22T12:50:06;98994.48;;;25.20;29.72
33286;BME280;19656;50.096;20.014;2023-05-22T12:55:11;98989.45;;;25.21;29.70
33286;BME280;19656;50.096;20.014;2023-05-22T13:00:15;98975.56;;;25.40;29.42
33286;BME280;19656;50.096;20.014;2023-05-22T13:05:18;98976.93;;;25.37;29.68
33286;BME280;19656;50.096;20.014;2023-05-22T13:10:21;98975.24;;;25.46;30.24
33286;BME280;19656;50.096;20.014;2023-05-22T13:15:24;98974.70;;;25.88;29.79
33286;BME280;19656;50.096;20.014;2023-05-22T13:20:31;98972.50;;;26.08;29.39
33286;BME280;19656;50.096;20.014;2023-05-22T13:25:34;98966.61;;;26.32;29.67
33286;BME280;19656;50.096;20.014;2023-05-22T13:30:37;98960.83;;;26.24;29.01
33286;BME280;19656;50.096;20.014;2023-05-22T13:35:42;98964.13;;;26.11;29.32
33286;BME280;19656;50.096;20.014;2023-05-22T13:40:46;98955.08;;;26.29;28.86
33286;BME280;19656;50.096;20.014;2023-05-22T13:45:50;98951.94;;;26.08;28.43
33286;BME280;19656;50.096;20.014;2023-05-22T13:50:53;98946.66;;;25.39;28.72
33286;BME280;19656;50.096;20.014;2023-05-22T13:55:56;98942.03;;;24.91;29.00
33286;BME280;19656;50.096;20.014;2023-05-22T14:00:59;98943.14;;;24.39;29.64
33286;BME280;19656;50.096;20.014;2023-05-22T14:06:03;98945.44;;;24.11;30.39
33286;BME280;19656;50.096;20.014;2023-05-22T14:11:06;98947.00;;;23.85;30.80
33286;BME280;19656;50.096;20.014;2023-05-22T14:16:10;98941.21;;;23.68;31.21
33286;BME280;19656;50.096;20.014;2023-05-22T14:21:13;98937.80;;;23.61;31.68
33286;BME280;19656;50.096;20.014;2023-05-22T14:26:16;98937.67;;;23.61;31.94
33286;BME280;19656;50.096;20.014;2023-05-22T14:31:20;98932.55;;;23.46;32.44
33286;BME280;19656;50.096;20.014;2023-05-22T14:36:23;98927.16;;;23.28;32.69
33286;BME280;19656;50.096;20.014;2023-05-22T14:41:26;98923.27;;;23.10;33.22
33286;BME280;19656;50.096;20.014;2023-05-22T14:46:30;98915.65;;;22.90;33.72
33286;BME280;19656;50.096;20.014;2023-05-22T14:51:33;98913.99;;;22.68;33.95
33286;BME280;19656;50.096;20.014;2023-05-22T14:56:36;98914.00;;;22.59;34.04
33286;BME280;19656;50.096;20.014;2023-05-22T15:01:40;98914.05;;;22.54;34.36
33286;BME280;19656;50.096;20.014;2023-05-22T15:06:46;98915.64;;;22.46;34.74
33286;BME280;19656;50.096;20.014;2023-05-22T15:11:49;98913.07;;;22.45;34.82
33286;BME280;19656;50.096;20.014;2023-05-22T15:16:52;98907.11;;;22.51;34.96
33286;BME280;19656;50.096;20.014;2023-05-22T15:21:56;98898.02;;;22.53;35.34
33286;BME280;19656;50.096;20.014;2023-05-22T15:27:10;98894.74;;;22.60;35.17
33286;BME280;19656;50.096;20.014;2023-05-22T15:32:14;98889.95;;;22.62;35.35
33286;BME280;19656;50.096;20.014;2023-05-22T15:37:17;98891.86;;;22.60;35.73
33286;BME280;19656;50.096;20.014;2023-05-22T15:42:20;98890.19;;;22.60;36.36
33286;BME280;19656;50.096;20.014;2023-05-22T15:47:24;98888.91;;;22.55;36.60
33286;BME280;19656;50.096;20.014;2023-05-22T15:52:27;98888.04;;;22.55;37.83
33286;BME280;19656;50.096;20.014;2023-05-22T15:57:30;98883.20;;;22.53;38.70
33286;BME280;19656;50.096;20.014;2023-05-22T16:02:33;98879.00;;;22.44;37.71
33286;BME280;19656;50.096;20.014;2023-05-22T16:07:37;98877.02;;;22.34;37.47
33286;BME280;19656;50.096;20.014;2023-05-22T16:12:40;98874.11;;;22.25;37.47
33286;BME280;19656;50.096;20.014;2023-05-22T16:17:43;98872.94;;;22.16;37.55
33286;BME280;19656;50.096;20.014;2023-05-22T16:22:47;98877.58;;;22.08;37.25
33286;BME280;19656;50.096;20.014;2023-05-22T16:27:51;98866.31;;;21.99;37.55
33286;BME280;19656;50.096;20.014;2023-05-22T16:32:54;98868.60;;;21.93;38.10
33286;BME280;19656;50.096;20.014;2023-05-22T16:37:57;98868.31;;;21.88;38.18
33286;BME280;19656;50.096;20.014;2023-05-22T16:43:01;98869.41;;;21.88;38.65
33286;BME280;19656;50.096;20.014;2023-05-22T16:48:11;98871.52;;;21.87;39.06
33286;BME280;19656;50.096;20.014;2023-05-22T16:53:15;98876.97;;;21.83;39.31
33286;BME280;19656;50.096;20.014;2023-05-22T16:58:19;98872.58;;;21.76;40.18
33286;BME280;19656;50.096;20.014;2023-05-22T17:03:24;98873.88;;;21.70;40.48
33286;BME280;19656;50.096;20.014;2023-05-22T17:08:28;98872.29;;;21.64;41.46
33286;BME280;19656;50.096;20.014;2023-05-22T17:13:33;98873.80;;;21.53;42.02
33286;BME280;19656;50.096;20.014;2023-05-22T17:18:36;98878.14;;;21.45;42.44
33286;BME280;19656;50.096;20.014;2023-05-22T17:23:39;98881.52;;;21.37;43.53
33286;BME280;19656;50.096;20.014;2023-05-22T17:28:43;98877.76;;;21.30;43.72
33286;BME280;19656;50.096;20.014;2023-05-22T17:33:46;98883.49;;;21.23;43.66
33286;BME280;19656;50.096;20.014;2023-05-22T17:38:49;98890.69;;;21.14;44.28
33286;BME280;19656;50.096;20.014;2023-05-22T17:43:52;98889.55;;;21.03;44.78
33286;BME280;19656;50.096;20.014;2023-05-22T17:48:57;98885.30;;;20.95;44.62
33286;BME280;19656;50.096;20.014;2023-05-22T17:54:00;98882.06;;;20.92;44.58
33286;BME280;19656;50.096;20.014;2023-05-22T17:59:06;98878.89;;;20.88;44.69
33286;BME280;19656;50.096;20.014;2023-05-22T18:04:09;98878.22;;;20.80;44.89
33286;BME280;19656;50.096;20.014;2023-05-22T18:09:14;98875.29;;;20.71;45.36
33286;BME280;19656;50.096;20.014;2023-05-22T18:14:17;98871.73;;;20.62;45.61
33286;BME280;19656;50.096;20.014;2023-05-22T18:19:20;98871.48;;;20.54;45.78
33286;BME280;19656;50.096;20.014;2023-05-22T18:24:26;98870.56;;;20.47;46.42
33286;BME280;19656;50.096;20.014;2023-05-22T18:29:29;98865.11;;;20.36;46.61
33286;BME280;19656;50.096;20.014;2023-05-22T18:34:34;98865.48;;;20.30;46.96
33286;BME280;19656;50.096;20.014;2023-05-22T18:39:39;98867.84;;;20.27;47.20
33286;BME280;19656;50.096;20.014;2023-05-22T18:44:42;98872.02;;;20.17;47.47
33286;BME280;19656;50.096;20.014;2023-05-22T18:49:47;98872.66;;;19.96;47.96
33286;BME280;19656;50.096;20.014;2023-05-22T18:54:50;98871.06;;;19.75;48.83
33286;BME280;19656;50.096;20.014;2023-05-22T18:59:53;98868.94;;;19.57;49.06
33286;BME280;19656;50.096;20.014;2023-05-22T19:04:56;98867.36;;;19.43;49.66
33286;BME280;19656;50.096;20.014;2023-05-22T19:09:59;98867.52;;;19.27;49.96
33286;BME280;19656;50.096;20.014;2023-05-22T19:15:03;98866.86;;;19.14;50.07
33286;BME280;19656;50.096;20.014;2023-05-22T19:20:07;98876.03;;;19.03;50.60
33286;BME280;19656;50.096;20.014;2023-05-22T19:25:11;98876.08;;;18.91;50.44
33286;BME280;19656;50.096;20.014;2023-05-22T19:30:14;98880.95;;;18.81;50.55
33286;BME280;19656;50.096;20.014;2023-05-22T19:35:18;98879.61;;;18.72;50.57
33286;BME280;19656;50.096;20.014;2023-05-22T19:40:21;98878.80;;;18.67;50.95
33286;BME280;19656;50.096;20.014;2023-05-22T19:45:25;98881.16;;;18.56;51.04
33286;BME280;19656;50.096;20.014;2023-05-22T19:50:28;98876.58;;;18.42;50.87
33286;BME280;19656;50.096;20.014;2023-05-22T19:55:31;98876.95;;;18.31;50.90
33286;BME280;19656;50.096;20.014;2023-05-22T20:00:35;98878.68;;;18.20;50.96
33286;BME280;19656;50.096;20.014;2023-05-22T20:05:39;98878.43;;;18.10;50.82
33286;BME280;19656;50.096;20.014;2023-05-22T20:10:49;98879.83;;;18.01;51.23
33286;BME280;19656;50.096;20.014;2023-05-22T20:15:55;98874.89;;;17.92;51.08
33286;BME280;19656;50.096;20.014;2023-05-22T20:20:59;98873.80;;;17.85;51.09
33286;BME280;19656;50.096;20.014;2023-05-22T20:26:02;98873.01;;;17.79;50.95
33286;BME280;19656;50.096;20.014;2023-05-22T20:31:05;98870.16;;;17.70;51.19
33286;BME280;19656;50.096;20.014;2023-05-22T20:36:08;98868.05;;;17.62;51.38
33286;BME280;19656;50.096;20.014;2023-05-22T20:41:12;98867.66;;;17.55;51.50
33286;BME280;19656;50.096;20.014;2023-05-22T20:46:15;98865.47;;;17.49;51.39
33286;BME280;19656;50.096;20.014;2023-05-22T20:51:19;98863.95;;;17.43;51.68
33286;BME280;19656;50.096;20.014;2023-05-22T20:56:22;98863.84;;;17.36;51.74
33286;BME280;19656;50.096;20.014;2023-05-22T21:01:25;98867.02;;;17.29;51.58
33286;BME280;19656;50.096;20.014;2023-05-22T21:06:29;98867.64;;;17.22;51.77
33286;BME280;19656;50.096;20.014;2023-05-22T21:11:33;98862.98;;;17.16;51.69
33286;BME280;19656;50.096;20.014;2023-05-22T21:16:36;98863.85;;;17.09;51.81
33286;BME280;19656;50.096;20.014;2023-05-22T21:21:41;98863.59;;;17.02;52.05
33286;BME280;19656;50.096;20.014;2023-05-22T21:26:44;98859.53;;;16.95;52.52
33286;BME280;19656;50.096;20.014;2023-05-22T21:31:47;98864.08;;;16.89;52.48
33286;BME280;19656;50.096;20.014;2023-05-22T21:36:51;98863.73;;;16.81;52.79
33286;BME280;19656;50.096;20.014;2023-05-22T21:41:54;98865.98;;;16.73;53.24
33286;BME280;19656;50.096;20.014;2023-05-22T21:46:57;98865.56;;;16.66;53.79
33286;BME280;19656;50.096;20.014;2023-05-22T21:52:03;98865.35;;;16.58;53.82
33286;BME280;19656;50.096;20.014;2023-05-22T21:57:19;98867.90;;;16.52;54.56
33286;BME280;19656;50.096;20.014;2023-05-22T22:02:23;98863.42;;;16.46;55.35
33286;BME280;19656;50.096;20.014;2023-05-22T22:07:26;98861.71;;;16.41;55.42
33286;BME280;19656;50.096;20.014;2023-05-22T22:12:29;98859.34;;;16.42;55.46
33286;BME280;19656;50.096;20.014;2023-05-22T22:17:32;98857.07;;;16.41;55.64
33286;BME280;19656;50.096;20.014;2023-05-22T22:22:37;98862.50;;;16.40;55.49
33286;BME280;19656;50.096;20.014;2023-05-22T22:27:40;98863.23;;;16.40;55.54
33286;BME280;19656;50.096;20.014;2023-05-22T22:32:43;98857.63;;;16.38;55.60
33286;BME280;19656;50.096;20.014;2023-05-22T22:37:50;98852.58;;;16.37;55.59
33286;BME280;19656;50.096;20.014;2023-05-22T22:42:53;98852.02;;;16.35;55.69
33286;BME280;19656;50.096;20.014;2023-05-22T22:47:56;98849.01;;;16.32;55.69
33286;BME280;19656;50.096;20.014;2023-05-22T22:53:00;98849.27;;;16.30;55.83
33286;BME280;19656;50.096;20.014;2023-05-22T22:58:03;98845.05;;;16.25;55.90
33286;BME280;19656;50.096;20.014;2023-05-22T23:03:07;98841.61;;;16.19;56.10
33286;BME280;19656;50.096;20.014;2023-05-22T23:08:10;98840.08;;;16.15;56.22
33286;BME280;19656;50.096;20.014;2023-05-22T23:13:14;98836.80;;;16.09;56.30
33286;BME280;19656;50.096;20.014;2023-05-22T23:18:18;98833.36;;;16.05;56.42
33286;BME280;19656;50.096;20.014;2023-05-22T23:23:21;98825.70;;;16.03;56.50
33286;BME280;19656;50.096;20.014;2023-05-22T23:28:24;98823.27;;;16.02;56.67
33286;BME280;19656;50.096;20.014;2023-05-22T23:33:28;98817.44;;;16.05;56.67
33286;BME280;19656;50.096;20.014;2023-05-22T23:38:31;98816.40;;;16.09;56.81
33286;BME280;19656;50.096;20.014;2023-05-22T23:43:34;98807.23;;;16.05;56.80
33286;BME280;19656;50.096;20.014;2023-05-22T23:48:38;98809.23;;;16.05;56.86
33286;BME280;19656;50.096;20.014;2023-05-22T23:53:41;98800.19;;;16.04;56.86
33286;BME280;19656;50.096;20.014;2023-05-22T23:58:44;98796.19;;;16.01;56.95
